sensor_id;sensor_type;location;lat;lon;timestamp;temperature;humidity
12408;DHT22;6268;48.188;17.134;2024-02-14T00:01:34;6.50;99.90
12408;DHT22;6268;48.188;17.134;2024-02-14T00:04:04;6.40;99.90
12408;DHT22;6268;48.188;17.134;2024-02-14T00:06:35;6.40;99.90
12408;DHT22;6268;48.188;17.134;2024-02-14T00:09:04;6.40;99.90
12408;DHT22;6268;48.188;17.134;2024-02-14T00:11:35;6.40;99.90
12408;DHT22;6268;48.188;17.134;2024-02-14T00:14:03;6.40;99.90
12408;DHT22;6268;48.188;17.134;2024-02-14T00:16:32;6.40;99.90
12408;DHT22;6268;48.188;17.134;2024-02-14T00:19:00;6.30;99.90
12408;DHT22;6268;48.188;17.134;2024-02-14T00:21:30;6.30;99.90
12408;DHT22;6268;48.188;17.134;2024-02-14T00:23:58;6.40;99.90
12408;DHT22;6268;48.188;17.134;2024-02-14T00:26:27;6.50;99.90
12408;DHT22;6268;48.188;17.134;2024-02-14T00:28:57;6.50;99.90
12408;DHT22;6268;48.188;17.134;2024-02-14T00:31:25;6.50;99.90
12408;DHT22;6268;48.188;17.134;2024-02-14T00:33:55;6.50;99.90
12408;DHT22;6268;48.188;17.134;2024-02-14T00:36:24;6.50;99.90
12408;DHT22;6268;48.188;17.134;2024-02-14T00:38:53;6.50;99.90
12408;DHT22;6268;48.188;17.134;2024-02-14T00:41:21;6.50;99.90
12408;DHT22;6268;48.188;17.134;2024-02-14T00:43:50;6.50;99.90
12408;DHT22;6268;48.188;17.134;2024-02-14T00:46:19;6.40;99.90
12408;DHT22;6268;48.188;17.134;2024-02-14T00:48:48;6.40;99.90
12408;DHT22;6268;48.188;17.134;2024-02-14T00:51:17;6.40;99.90
12408;DHT22;6268;48.188;17.134;2024-02-14T00:53:45;6.30;99.90
12408;DHT22;6268;48.188;17.134;2024-02-14T00:56:14;6.30;99.90
12408;DHT22;6268;48.188;17.134;2024-02-14T00:58:42;6.20;99.90
12408;DHT22;6268;48.188;17.134;2024-02-14T01:01:11;6.20;99.90
12408;DHT22;6268;48.188;17.134;2024-02-14T01:03:41;6.10;99.90
12408;DHT22;6268;48.188;17.134;2024-02-14T01:06:09;6.10;99.90
12408;DHT22;6268;48.188;17.134;2024-02-14T01:08:38;6.10;99.90
12408;DHT22;6268;48.188;17.134;2024-02-14T01:11:07;6.00;99.90
12408;DHT22;6268;48.188;17.134;2024-02-14T01:13:35;6.00;99.90
12408;DHT22;6268;48.188;17.134;2024-02-14T01:16:04;5.90;99.90
12408;DHT22;6268;48.188;17.134;2024-02-14T01:18:33;5.90;99.90
12408;DHT22;6268;48.188;17.134;2024-02-14T01:21:05;5.80;99.90
12408;DHT22;6268;48.188;17.134;2024-02-14T01:23:34;5.80;99.90
12408;DHT22;6268;48.188;17.134;2024-02-14T01:26:02;5.70;99.90
12408;DHT22;6268;48.188;17.134;2024-02-14T01:28:31;5.60;99.90
12408;DHT22;6268;48.188;17.134;2024-02-14T01:31:00;5.50;99.90
12408;DHT22;6268;48.188;17.134;2024-02-14T01:33:29;5.40;99.90
12408;DHT22;6268;48.188;17.134;2024-02-14T01:35:58;5.30;99.90
12408;DHT22;6268;48.188;17.134;2024-02-14T01:38:29;5.20;99.90
12408;DHT22;6268;48.188;17.134;2024-02-14T01:41:03;5.10;99.90
12408;DHT22;6268;48.188;17.134;2024-02-14T01:43:31;5.20;99.90
12408;DHT22;6268;48.188;17.134;2024-02-14T01:46:05;5.30;99.90
12408;DHT22;6268;48.188;17.134;2024-02-14T01:48:34;5.30;99.90
12408;DHT22;6268;48.188;17.134;2024-02-14T01:51:04;5.30;99.90
12408;DHT22;6268;48.188;17.134;2024-02-14T01:53:36;5.30;99.90
12408;DHT22;6268;48.188;17.134;2024-02-14T01:56:06;5.30;99.90
12408;DHT22;6268;48.188;17.134;2024-02-14T01:58:35;5.30;99.90
12408;DHT22;6268;48.188;17.134;2024-02-14T02:01:04;5.40;99.90
12408;DHT22;6268;48.188;17.134;2024-02-14T02:03:34;5.40;99.90
12408;DHT22;6268;48.188;17.134;2024-02-14T02:06:05;5.40;99.90
12408;DHT22;6268;48.188;17.134;2024-02-14T02:08:36;5.40;99.90
12408;DHT22;6268;48.188;17.134;2024-02-14T02:11:04;5.40;99.90
12408;DHT22;6268;48.188;17.134;2024-02-14T02:13:33;5.40;99.90
12408;DHT22;6268;48.188;17.134;2024-02-14T02:16:02;5.40;99.90
12408;DHT22;6268;48.188;17.134;2024-02-14T02:18:32;5.40;99.90
12408;DHT22;6268;48.188;17.134;2024-02-14T02:21:00;5.40;99.90
12408;DHT22;6268;48.188;17.134;2024-02-14T02:23:32;5.40;99.90
12408;DHT22;6268;48.188;17.134;2024-02-14T02:26:01;5.40;99.90
12408;DHT22;6268;48.188;17.134;2024-02-14T02:28:29;5.40;99.90
12408;DHT22;6268;48.188;17.134;2024-02-14T02:30:58;5.40;99.90
12408;DHT22;6268;48.188;17.134;2024-02-14T02:33:26;5.40;99.90
12408;DHT22;6268;48.188;17.134;2024-02-14T02:35:55;5.50;99.90
12408;DHT22;6268;48.188;17.134;2024-02-14T02:38:23;5.50;99.90
12408;DHT22;6268;48.188;17.134;2024-02-14T02:40:53;5.50;99.90
12408;DHT22;6268;48.188;17.134;2024-02-14T02:43:22;5.50;99.90
12408;DHT22;6268;48.188;17.134;2024-02-14T02:45:50;5.50;99.90
12408;DHT22;6268;48.188;17.134;2024-02-14T02:48:19;5.50;99.90
12408;DHT22;6268;48.188;17.134;2024-02-14T02:50:50;5.50;99.90
12408;DHT22;6268;48.188;17.134;2024-02-14T02:53:19;5.50;99.90
12408;DHT22;6268;48.188;17.134;2024-02-14T02:55:47;5.50;99.90
12408;DHT22;6268;48.188;17.134;2024-02-14T02:58:20;5.50;99.90
12408;DHT22;6268;48.188;17.134;2024-02-14T03:00:49;5.50;99.90
12408;DHT22;6268;48.188;17.134;2024-02-14T03:03:17;5.50;99.90
12408;DHT22;6268;48.188;17.134;2024-02-14T03:05:46;5.50;99.90
12408;DHT22;6268;48.188;17.134;2024-02-14T03:08:14;5.50;99.90
12408;DHT22;6268;48.188;17.134;2024-02-14T03:10:43;5.60;99.90
12408;DHT22;6268;48.188;17.134;2024-02-14T03:13:14;5.50;99.90
12408;DHT22;6268;48.188;17.134;2024-02-14T03:15:46;5.50;99.90
12408;DHT22;6268;48.188;17.134;2024-02-14T03:18:15;5.50;99.90
12408;DHT22;6268;48.188;17.134;2024-02-14T03:20:44;5.50;99.90
12408;DHT22;6268;48.188;17.134;2024-02-14T03:23:12;5.50;99.90
12408;DHT22;6268;48.188;17.134;2024-02-14T03:25:42;5.50;99.90
12408;DHT22;6268;48.188;17.134;2024-02-14T03:28:10;5.50;99.90
12408;DHT22;6268;48.188;17.134;2024-02-14T03:30:40;5.50;99.90
12408;DHT22;6268;48.188;17.134;2024-02-14T03:33:10;5.50;99.90
12408;DHT22;6268;48.188;17.134;2024-02-14T03:35:38;5.50;99.90
12408;DHT22;6268;48.188;17.134;2024-02-14T03:38:08;5.50;99.90
12408;DHT22;6268;48.188;17.134;2024-02-14T03:40:37;5.50;99.90
12408;DHT22;6268;48.188;17.134;2024-02-14T03:43:05;5.40;99.90
12408;DHT22;6268;48.188;17.134;2024-02-14T03:45:39;5.40;99.90
12408;DHT22;6268;48.188;17.134;2024-02-14T03:48:07;5.40;99.90
12408;DHT22;6268;48.188;17.134;2024-02-14T03:50:39;5.40;99.90
12408;DHT22;6268;48.188;17.134;2024-02-14T03:53:07;5.30;99.90
12408;DHT22;6268;48.188;17.134;2024-02-14T03:55:38;5.30;99.90
12408;DHT22;6268;48.188;17.134;2024-02-14T03:58:06;5.30;99.90
12408;DHT22;6268;48.188;17.134;2024-02-14T04:00:35;5.30;99.90
12408;DHT22;6268;48.188;17.134;2024-02-14T04:03:04;5.30;99.90
12408;DHT22;6268;48.188;17.134;2024-02-14T04:05:34;5.30;99.90
12408;DHT22;6268;48.188;17.134;2024-02-14T04:08:05;5.20;99.90
12408;DHT22;6268;48.188;17.134;2024-02-14T04:10:37;5.20;99.90
12408;DHT22;6268;48.188;17.134;2024-02-14T04:13:06;5.10;99.90
12408;DHT22;6268;48.188;17.134;2024-02-14T04:15:34;5.10;99.90
12408;DHT22;6268;48.188;17.134;2024-02-14T04:18:03;5.10;99.90
12408;DHT22;6268;48.188;17.134;2024-02-14T04:20:34;5.10;99.90
12408;DHT22;6268;48.188;17.134;2024-02-14T04:23:04;5.00;99.90
12408;DHT22;6268;48.188;17.134;2024-02-14T04:25:34;5.00;99.90
12408;DHT22;6268;48.188;17.134;2024-02-14T04:28:03;5.10;99.90
12408;DHT22;6268;48.188;17.134;2024-02-14T04:30:32;5.10;99.90
12408;DHT22;6268;48.188;17.134;2024-02-14T04:33:00;5.20;99.90
12408;DHT22;6268;48.188;17.134;2024-02-14T04:35:30;5.20;99.90
12408;DHT22;6268;48.188;17.134;2024-02-14T04:37:58;5.10;99.90
12408;DHT22;6268;48.188;17.134;2024-02-14T04:40:28;5.10;99.90
12408;DHT22;6268;48.188;17.134;2024-02-14T04:42:56;5.10;99.90
12408;DHT22;6268;48.188;17.134;2024-02-14T04:45:25;5.00;99.90
12408;DHT22;6268;48.188;17.134;2024-02-14T04:47:53;5.00;99.90
12408;DHT22;6268;48.188;17.134;2024-02-14T04:50:22;5.00;99.90
12408;DHT22;6268;48.188;17.134;2024-02-14T04:52:50;4.90;99.90
12408;DHT22;6268;48.188;17.134;2024-02-14T04:55:18;4.90;99.90
12408;DHT22;6268;48.188;17.134;2024-02-14T04:57:48;4.90;99.90
12408;DHT22;6268;48.188;17.134;2024-02-14T05:00:17;4.90;99.90
12408;DHT22;6268;48.188;17.134;2024-02-14T05:02:46;4.90;99.90
12408;DHT22;6268;48.188;17.134;2024-02-14T05:05:15;4.80;99.90
12408;DHT22;6268;48.188;17.134;2024-02-14T05:07:43;4.80;99.90
12408;DHT22;6268;48.188;17.134;2024-02-14T05:10:11;4.70;99.90
12408;DHT22;6268;48.188;17.134;2024-02-14T05:12:40;4.70;99.90
12408;DHT22;6268;48.188;17.134;2024-02-14T05:15:10;4.80;99.90
12408;DHT22;6268;48.188;17.134;2024-02-14T05:17:42;4.90;99.90
12408;DHT22;6268;48.188;17.134;2024-02-14T05:20:11;4.80;99.90
12408;DHT22;6268;48.188;17.134;2024-02-14T05:22:40;4.90;99.90
12408;DHT22;6268;48.188;17.134;2024-02-14T05:25:09;4.90;99.90
12408;DHT22;6268;48.188;17.134;2024-02-14T05:27:37;4.80;99.90
12408;DHT22;6268;48.188;17.134;2024-02-14T05:30:06;4.80;99.90
12408;DHT22;6268;48.188;17.134;2024-02-14T05:32:38;4.80;99.90
12408;DHT22;6268;48.188;17.134;2024-02-14T05:35:07;4.80;99.90
12408;DHT22;6268;48.188;17.134;2024-02-14T05:37:36;4.80;99.90
12408;DHT22;6268;48.188;17.134;2024-02-14T05:40:06;4.70;99.90
12408;DHT22;6268;48.188;17.134;2024-02-14T05:42:35;4.80;99.90
12408;DHT22;6268;48.188;17.134;2024-02-14T05:45:04;4.80;99.90
12408;DHT22;6268;48.188;17.134;2024-02-14T05:47:53;4.80;99.90
12408;DHT22;6268;48.188;17.134;2024-02-14T05:50:21;4.80;99.90
12408;DHT22;6268;48.188;17.134;2024-02-14T05:52:50;4.70;99.90
12408;DHT22;6268;48.188;17.134;2024-02-14T05:55:18;4.70;99.90
12408;DHT22;6268;48.188;17.134;2024-02-14T05:57:47;4.70;99.90
12408;DHT22;6268;48.188;17.134;2024-02-14T06:00:16;4.70;99.90
12408;DHT22;6268;48.188;17.134;2024-02-14T06:02:46;4.70;99.90
12408;DHT22;6268;48.188;17.134;2024-02-14T06:05:17;4.80;99.90
12408;DHT22;6268;48.188;17.134;2024-02-14T06:07:45;4.80;99.90
12408;DHT22;6268;48.188;17.134;2024-02-14T06:10:14;4.80;99.90
12408;DHT22;6268;48.188;17.134;2024-02-14T06:12:42;4.90;99.90
12408;DHT22;6268;48.188;17.134;2024-02-14T06:15:11;5.00;99.90
12408;DHT22;6268;48.188;17.134;2024-02-14T06:17:40;5.20;99.90
12408;DHT22;6268;48.188;17.134;2024-02-14T06:20:09;5.40;99.90
12408;DHT22;6268;48.188;17.134;2024-02-14T06:22:40;5.60;99.90
12408;DHT22;6268;48.188;17.134;2024-02-14T06:25:22;5.80;99.90
12408;DHT22;6268;48.188;17.134;2024-02-14T06:27:51;6.00;99.90
12408;DHT22;6268;48.188;17.134;2024-02-14T06:30:21;6.30;99.90
12408;DHT22;6268;48.188;17.134;2024-02-14T06:32:50;6.40;99.90
12408;DHT22;6268;48.188;17.134;2024-02-14T06:35:18;6.50;99.90
12408;DHT22;6268;48.188;17.134;2024-02-14T06:37:49;6.60;99.90
12408;DHT22;6268;48.188;17.134;2024-02-14T06:40:29;6.70;99.90
12408;DHT22;6268;48.188;17.134;2024-02-14T06:42:57;6.70;99.90
12408;DHT22;6268;48.188;17.134;2024-02-14T06:45:27;6.80;99.90
12408;DHT22;6268;48.188;17.134;2024-02-14T06:47:56;7.00;99.90
12408;DHT22;6268;48.188;17.134;2024-02-14T06:50:26;7.50;99.90
12408;DHT22;6268;48.188;17.134;2024-02-14T06:52:58;7.90;99.90
12408;DHT22;6268;48.188;17.134;2024-02-14T06:55:27;8.40;99.90
12408;DHT22;6268;48.188;17.134;2024-02-14T06:57:57;8.70;99.90
12408;DHT22;6268;48.188;17.134;2024-02-14T07:00:26;9.10;99.90
12408;DHT22;6268;48.188;17.134;2024-02-14T07:02:55;9.50;99.90
12408;DHT22;6268;48.188;17.134;2024-02-14T07:05:26;9.90;99.90
12408;DHT22;6268;48.188;17.134;2024-02-14T07:07:55;10.20;99.90
12408;DHT22;6268;48.188;17.134;2024-02-14T07:10:24;10.40;98.30
12408;DHT22;6268;48.188;17.134;2024-02-14T07:12:53;10.50;97.80
12408;DHT22;6268;48.188;17.134;2024-02-14T07:15:21;10.70;96.50
12408;DHT22;6268;48.188;17.134;2024-02-14T07:17:52;10.70;96.10
12408;DHT22;6268;48.188;17.134;2024-02-14T07:20:21;10.70;95.40
12408;DHT22;6268;48.188;17.134;2024-02-14T07:22:49;10.90;95.10
12408;DHT22;6268;48.188;17.134;2024-02-14T07:25:20;10.90;94.10
12408;DHT22;6268;48.188;17.134;2024-02-14T07:27:50;11.00;93.70
12408;DHT22;6268;48.188;17.134;2024-02-14T07:30:18;11.00;94.30
12408;DHT22;6268;48.188;17.134;2024-02-14T07:32:47;11.00;94.00
12408;DHT22;6268;48.188;17.134;2024-02-14T07:35:15;11.20;93.90
12408;DHT22;6268;48.188;17.134;2024-02-14T07:37:44;11.20;93.60
12408;DHT22;6268;48.188;17.134;2024-02-14T07:40:13;11.20;93.70
12408;DHT22;6268;48.188;17.134;2024-02-14T07:42:44;11.30;92.60
12408;DHT22;6268;48.188;17.134;2024-02-14T07:45:14;11.30;90.80
12408;DHT22;6268;48.188;17.134;2024-02-14T07:47:48;11.10;91.80
12408;DHT22;6268;48.188;17.134;2024-02-14T07:50:17;11.00;92.00
12408;DHT22;6268;48.188;17.134;2024-02-14T07:52:47;10.80;92.70
12408;DHT22;6268;48.188;17.134;2024-02-14T07:55:16;10.80;92.50
12408;DHT22;6268;48.188;17.134;2024-02-14T07:57:44;10.80;92.60
12408;DHT22;6268;48.188;17.134;2024-02-14T08:00:15;10.70;92.80
12408;DHT22;6268;48.188;17.134;2024-02-14T08:02:50;10.80;93.10
12408;DHT22;6268;48.188;17.134;2024-02-14T08:05:18;11.00;92.60
12408;DHT22;6268;48.188;17.134;2024-02-14T08:07:47;11.30;92.40
12408;DHT22;6268;48.188;17.134;2024-02-14T08:10:16;11.70;91.50
12408;DHT22;6268;48.188;17.134;2024-02-14T08:12:44;12.10;90.50
12408;DHT22;6268;48.188;17.134;2024-02-14T08:15:16;12.50;88.90
12408;DHT22;6268;48.188;17.134;2024-02-14T08:17:44;12.90;86.60
12408;DHT22;6268;48.188;17.134;2024-02-14T08:20:13;13.10;84.70
12408;DHT22;6268;48.188;17.134;2024-02-14T08:22:42;13.60;83.10
12408;DHT22;6268;48.188;17.134;2024-02-14T08:25:11;13.90;79.80
12408;DHT22;6268;48.188;17.134;2024-02-14T08:27:39;14.00;78.70
12408;DHT22;6268;48.188;17.134;2024-02-14T08:30:09;13.90;77.30
12408;DHT22;6268;48.188;17.134;2024-02-14T08:32:41;13.70;76.50
12408;DHT22;6268;48.188;17.134;2024-02-14T08:35:09;13.30;77.70
12408;DHT22;6268;48.188;17.134;2024-02-14T08:37:41;13.00;78.80
12408;DHT22;6268;48.188;17.134;2024-02-14T08:40:10;13.00;79.50
12408;DHT22;6268;48.188;17.134;2024-02-14T08:42:39;12.90;79.70
12408;DHT22;6268;48.188;17.134;2024-02-14T08:45:08;12.90;80.30
12408;DHT22;6268;48.188;17.134;2024-02-14T08:47:40;13.10;80.90
12408;DHT22;6268;48.188;17.134;2024-02-14T08:50:11;13.50;79.30
12408;DHT22;6268;48.188;17.134;2024-02-14T08:52:41;13.50;80.30
12408;DHT22;6268;48.188;17.134;2024-02-14T08:55:09;13.50;81.90
12408;DHT22;6268;48.188;17.134;2024-02-14T08:57:43;13.40;80.40
12408;DHT22;6268;48.188;17.134;2024-02-14T09:00:13;13.30;80.70
12408;DHT22;6268;48.188;17.134;2024-02-14T09:02:48;13.40;83.90
12408;DHT22;6268;48.188;17.134;2024-02-14T09:05:17;13.50;78.80
12408;DHT22;6268;48.188;17.134;2024-02-14T09:07:46;13.30;79.50
12408;DHT22;6268;48.188;17.134;2024-02-14T09:10:14;13.30;83.30
12408;DHT22;6268;48.188;17.134;2024-02-14T09:12:42;13.20;79.40
12408;DHT22;6268;48.188;17.134;2024-02-14T09:15:11;13.10;81.20
12408;DHT22;6268;48.188;17.134;2024-02-14T09:17:40;13.10;83.50
12408;DHT22;6268;48.188;17.134;2024-02-14T09:20:10;13.40;80.70
12408;DHT22;6268;48.188;17.134;2024-02-14T09:22:41;13.50;79.40
12408;DHT22;6268;48.188;17.134;2024-02-14T09:25:10;13.50;80.10
12408;DHT22;6268;48.188;17.134;2024-02-14T09:27:38;13.70;78.80
12408;DHT22;6268;48.188;17.134;2024-02-14T09:30:08;13.70;78.90
12408;DHT22;6268;48.188;17.134;2024-02-14T09:32:53;13.70;78.10
12408;DHT22;6268;48.188;17.134;2024-02-14T09:35:24;13.70;78.20
12408;DHT22;6268;48.188;17.134;2024-02-14T09:37:52;13.60;78.30
12408;DHT22;6268;48.188;17.134;2024-02-14T09:40:21;13.60;77.70
12408;DHT22;6268;48.188;17.134;2024-02-14T09:42:53;13.80;78.60
12408;DHT22;6268;48.188;17.134;2024-02-14T09:45:25;14.00;77.90
12408;DHT22;6268;48.188;17.134;2024-02-14T09:47:54;14.30;76.60
12408;DHT22;6268;48.188;17.134;2024-02-14T09:50:25;14.60;76.30
12408;DHT22;6268;48.188;17.134;2024-02-14T09:52:55;15.00;75.90
12408;DHT22;6268;48.188;17.134;2024-02-14T09:55:25;15.50;73.70
12408;DHT22;6268;48.188;17.134;2024-02-14T09:57:54;15.70;72.50
12408;DHT22;6268;48.188;17.134;2024-02-14T10:00:23;16.00;71.80
12408;DHT22;6268;48.188;17.134;2024-02-14T10:02:51;16.30;70.90
12408;DHT22;6268;48.188;17.134;2024-02-14T10:05:20;16.70;69.80
12408;DHT22;6268;48.188;17.134;2024-02-14T10:07:50;16.90;67.70
12408;DHT22;6268;48.188;17.134;2024-02-14T10:10:18;16.80;65.80
12408;DHT22;6268;48.188;17.134;2024-02-14T10:12:49;16.90;65.50
12408;DHT22;6268;48.188;17.134;2024-02-14T10:15:17;16.90;64.80
12408;DHT22;6268;48.188;17.134;2024-02-14T10:17:46;16.80;64.30
12408;DHT22;6268;48.188;17.134;2024-02-14T10:20:17;16.80;64.70
12408;DHT22;6268;48.188;17.134;2024-02-14T10:22:46;16.80;63.80
12408;DHT22;6268;48.188;17.134;2024-02-14T10:25:15;16.60;63.80
12408;DHT22;6268;48.188;17.134;2024-02-14T10:27:46;16.40;63.90
12408;DHT22;6268;48.188;17.134;2024-02-14T10:30:15;16.10;64.30
12408;DHT22;6268;48.188;17.134;2024-02-14T10:32:43;15.80;64.20
12408;DHT22;6268;48.188;17.134;2024-02-14T10:35:15;15.30;64.50
12408;DHT22;6268;48.188;17.134;2024-02-14T10:37:44;14.80;66.30
12408;DHT22;6268;48.188;17.134;2024-02-14T10:40:15;14.50;67.40
12408;DHT22;6268;48.188;17.134;2024-02-14T10:42:44;14.40;67.80
12408;DHT22;6268;48.188;17.134;2024-02-14T10:45:12;14.30;67.40
12408;DHT22;6268;48.188;17.134;2024-02-14T10:47:43;14.20;68.00
12408;DHT22;6268;48.188;17.134;2024-02-14T10:50:16;14.00;68.60
12408;DHT22;6268;48.188;17.134;2024-02-14T10:52:47;13.90;68.80
12408;DHT22;6268;48.188;17.134;2024-02-14T10:55:17;13.80;69.70
12408;DHT22;6268;48.188;17.134;2024-02-14T10:57:50;13.70;70.00
12408;DHT22;6268;48.188;17.134;2024-02-14T11:00:19;13.70;69.90
12408;DHT22;6268;48.188;17.134;2024-02-14T11:02:48;13.90;69.20
12408;DHT22;6268;48.188;17.134;2024-02-14T11:05:20;14.10;68.40
12408;DHT22;6268;48.188;17.134;2024-02-14T11:07:51;14.10;67.20
12408;DHT22;6268;48.188;17.134;2024-02-14T11:10:22;14.10;67.90
12408;DHT22;6268;48.188;17.134;2024-02-14T11:12:51;14.10;67.90
12408;DHT22;6268;48.188;17.134;2024-02-14T11:15:23;14.10;67.40
12408;DHT22;6268;48.188;17.134;2024-02-14T11:18:03;14.20;68.50
12408;DHT22;6268;48.188;17.134;2024-02-14T11:20:34;14.20;67.60
12408;DHT22;6268;48.188;17.134;2024-02-14T11:23:05;14.20;67.30
12408;DHT22;6268;48.188;17.134;2024-02-14T11:25:35;14.30;67.30
12408;DHT22;6268;48.188;17.134;2024-02-14T11:28:13;14.40;67.30
12408;DHT22;6268;48.188;17.134;2024-02-14T11:30:42;14.50;68.30
12408;DHT22;6268;48.188;17.134;2024-02-14T11:33:16;14.50;66.30
12408;DHT22;6268;48.188;17.134;2024-02-14T11:35:47;14.60;67.10
12408;DHT22;6268;48.188;17.134;2024-02-14T11:38:17;14.80;66.70
12408;DHT22;6268;48.188;17.134;2024-02-14T11:40:47;15.00;66.70
12408;DHT22;6268;48.188;17.134;2024-02-14T11:43:19;15.30;67.50
12408;DHT22;6268;48.188;17.134;2024-02-14T11:45:47;15.30;66.20
12408;DHT22;6268;48.188;17.134;2024-02-14T11:48:17;15.30;66.00
12408;DHT22;6268;48.188;17.134;2024-02-14T11:50:47;15.20;65.60
12408;DHT22;6268;48.188;17.134;2024-02-14T11:53:16;15.10;65.30
12408;DHT22;6268;48.188;17.134;2024-02-14T11:55:47;15.00;66.80
12408;DHT22;6268;48.188;17.134;2024-02-14T11:58:17;15.00;68.40
12408;DHT22;6268;48.188;17.134;2024-02-14T12:00:46;15.00;68.60
12408;DHT22;6268;48.188;17.134;2024-02-14T12:03:18;14.90;70.10
12408;DHT22;6268;48.188;17.134;2024-02-14T12:05:47;14.80;70.00
12408;DHT22;6268;48.188;17.134;2024-02-14T12:08:18;14.90;69.70
12408;DHT22;6268;48.188;17.134;2024-02-14T12:10:48;14.80;70.20
12408;DHT22;6268;48.188;17.134;2024-02-14T12:13:19;14.60;70.80
12408;DHT22;6268;48.188;17.134;2024-02-14T12:15:49;14.50;72.30
12408;DHT22;6268;48.188;17.134;2024-02-14T12:18:19;14.30;72.80
12408;DHT22;6268;48.188;17.134;2024-02-14T12:20:49;14.00;74.50
12408;DHT22;6268;48.188;17.134;2024-02-14T12:23:22;13.90;74.50
12408;DHT22;6268;48.188;17.134;2024-02-14T12:26:01;13.80;76.00
12408;DHT22;6268;48.188;17.134;2024-02-14T12:28:31;13.70;75.60
12408;DHT22;6268;48.188;17.134;2024-02-14T12:30:59;13.70;76.10
12408;DHT22;6268;48.188;17.134;2024-02-14T12:33:28;13.60;76.60
12408;DHT22;6268;48.188;17.134;2024-02-14T12:35:57;13.50;77.10
12408;DHT22;6268;48.188;17.134;2024-02-14T12:38:26;13.50;78.00
12408;DHT22;6268;48.188;17.134;2024-02-14T12:40:56;13.50;77.60
12408;DHT22;6268;48.188;17.134;2024-02-14T12:43:24;13.50;77.30
12408;DHT22;6268;48.188;17.134;2024-02-14T12:45:53;13.60;77.50
12408;DHT22;6268;48.188;17.134;2024-02-14T12:48:23;13.50;77.40
12408;DHT22;6268;48.188;17.134;2024-02-14T12:50:54;13.50;77.50
12408;DHT22;6268;48.188;17.134;2024-02-14T12:53:24;13.40;78.20
12408;DHT22;6268;48.188;17.134;2024-02-14T12:55:52;13.50;78.40
12408;DHT22;6268;48.188;17.134;2024-02-14T12:58:22;13.50;78.00
12408;DHT22;6268;48.188;17.134;2024-02-14T13:00:51;13.40;78.50
12408;DHT22;6268;48.188;17.134;2024-02-14T13:03:20;13.40;79.70
12408;DHT22;6268;48.188;17.134;2024-02-14T13:05:49;13.40;78.80
12408;DHT22;6268;48.188;17.134;2024-02-14T13:08:18;13.50;79.60
12408;DHT22;6268;48.188;17.134;2024-02-14T13:10:46;13.60;79.00
12408;DHT22;6268;48.188;17.134;2024-02-14T13:13:15;13.60;79.60
12408;DHT22;6268;48.188;17.134;2024-02-14T13:15:45;13.70;78.50
12408;DHT22;6268;48.188;17.134;2024-02-14T13:18:13;13.70;78.70
12408;DHT22;6268;48.188;17.134;2024-02-14T13:20:43;13.70;79.30
12408;DHT22;6268;48.188;17.134;2024-02-14T13:23:12;13.60;79.60
12408;DHT22;6268;48.188;17.134;2024-02-14T13:25:41;13.60;79.00
12408;DHT22;6268;48.188;17.134;2024-02-14T13:28:10;13.50;80.10
12408;DHT22;6268;48.188;17.134;2024-02-14T13:30:38;13.60;79.70
12408;DHT22;6268;48.188;17.134;2024-02-14T13:33:08;13.60;79.60
12408;DHT22;6268;48.188;17.134;2024-02-14T13:35:39;13.60;80.40
12408;DHT22;6268;48.188;17.134;2024-02-14T13:38:07;13.60;80.70
12408;DHT22;6268;48.188;17.134;2024-02-14T13:40:37;13.60;80.30
12408;DHT22;6268;48.188;17.134;2024-02-14T13:43:05;13.50;80.70
12408;DHT22;6268;48.188;17.134;2024-02-14T13:45:41;13.50;80.00
12408;DHT22;6268;48.188;17.134;2024-02-14T13:48:12;13.40;80.80
12408;DHT22;6268;48.188;17.134;2024-02-14T13:50:41;13.30;81.10
12408;DHT22;6268;48.188;17.134;2024-02-14T13:53:10;13.30;81.40
12408;DHT22;6268;48.188;17.134;2024-02-14T13:55:39;13.30;81.80
12408;DHT22;6268;48.188;17.134;2024-02-14T13:58:07;13.20;82.30
12408;DHT22;6268;48.188;17.134;2024-02-14T14:00:44;13.20;82.10
12408;DHT22;6268;48.188;17.134;2024-02-14T14:03:14;13.30;82.60
12408;DHT22;6268;48.188;17.134;2024-02-14T14:05:42;13.30;83.20
12408;DHT22;6268;48.188;17.134;2024-02-14T14:08:11;13.30;83.00
12408;DHT22;6268;48.188;17.134;2024-02-14T14:10:40;13.20;83.30
12408;DHT22;6268;48.188;17.134;2024-02-14T14:13:10;13.20;84.30
12408;DHT22;6268;48.188;17.134;2024-02-14T14:15:39;13.10;84.90
12408;DHT22;6268;48.188;17.134;2024-02-14T14:18:08;13.10;85.60
12408;DHT22;6268;48.188;17.134;2024-02-14T14:20:39;13.10;86.10
12408;DHT22;6268;48.188;17.134;2024-02-14T14:23:07;13.00;87.10
12408;DHT22;6268;48.188;17.134;2024-02-14T14:25:36;13.00;87.20
12408;DHT22;6268;48.188;17.134;2024-02-14T14:28:05;13.00;88.00
12408;DHT22;6268;48.188;17.134;2024-02-14T14:30:35;12.90;88.80
12408;DHT22;6268;48.188;17.134;2024-02-14T14:33:04;13.00;90.00
12408;DHT22;6268;48.188;17.134;2024-02-14T14:35:34;12.90;90.40
12408;DHT22;6268;48.188;17.134;2024-02-14T14:38:05;12.80;90.90
12408;DHT22;6268;48.188;17.134;2024-02-14T14:40:34;12.80;90.80
12408;DHT22;6268;48.188;17.134;2024-02-14T14:43:04;12.80;90.80
12408;DHT22;6268;48.188;17.134;2024-02-14T14:45:34;12.80;90.70
12408;DHT22;6268;48.188;17.134;2024-02-14T14:48:04;12.90;91.00
12408;DHT22;6268;48.188;17.134;2024-02-14T14:50:34;12.80;91.30
12408;DHT22;6268;48.188;17.134;2024-02-14T14:53:05;12.90;92.00
12408;DHT22;6268;48.188;17.134;2024-02-14T14:55:51;12.90;91.30
12408;DHT22;6268;48.188;17.134;2024-02-14T14:58:19;12.90;91.10
12408;DHT22;6268;48.188;17.134;2024-02-14T15:00:53;12.90;91.40
12408;DHT22;6268;48.188;17.134;2024-02-14T15:03:23;12.90;91.50
12408;DHT22;6268;48.188;17.134;2024-02-14T15:05:51;12.80;91.60
12408;DHT22;6268;48.188;17.134;2024-02-14T15:08:22;12.80;91.40
12408;DHT22;6268;48.188;17.134;2024-02-14T15:10:53;12.80;91.70
12408;DHT22;6268;48.188;17.134;2024-02-14T15:13:23;12.80;91.60
12408;DHT22;6268;48.188;17.134;2024-02-14T15:15:52;12.80;91.70
12408;DHT22;6268;48.188;17.134;2024-02-14T15:18:20;12.80;92.00
12408;DHT22;6268;48.188;17.134;2024-02-14T15:20:49;12.70;92.00
12408;DHT22;6268;48.188;17.134;2024-02-14T15:23:17;12.70;92.10
12408;DHT22;6268;48.188;17.134;2024-02-14T15:25:47;12.70;92.50
12408;DHT22;6268;48.188;17.134;2024-02-14T15:28:16;12.60;92.60
12408;DHT22;6268;48.188;17.134;2024-02-14T15:30:55;12.70;92.40
12408;DHT22;6268;48.188;17.134;2024-02-14T15:33:41;12.60;92.70
12408;DHT22;6268;48.188;17.134;2024-02-14T15:36:10;12.60;92.50
12408;DHT22;6268;48.188;17.134;2024-02-14T15:38:40;12.60;92.50
12408;DHT22;6268;48.188;17.134;2024-02-14T15:41:10;12.60;92.80
12408;DHT22;6268;48.188;17.134;2024-02-14T15:43:38;12.60;92.70
12408;DHT22;6268;48.188;17.134;2024-02-14T15:46:11;12.50;92.90
12408;DHT22;6268;48.188;17.134;2024-02-14T15:48:40;12.50;92.90
12408;DHT22;6268;48.188;17.134;2024-02-14T15:51:09;12.40;93.10
12408;DHT22;6268;48.188;17.134;2024-02-14T15:53:38;12.40;93.20